Time;durP1;ratioP1;P1;durP2;ratioP2;P2;SDS_P1;SDS_P2;PMS_P1;PMS_P2;Temp;Humidity;BMP_temperature;BMP_pressure;BME280_temperature;BME280_humidity;BME280_pressure;Samples;Min_cycle;Max_cycle;Signal;HPM_P1;HPM_P2
2021/09/05 00:00:38;;;;;;;7.25;6.57;;;21.90;62.40;;;;;;5092345;28;20179;-60
2021/09/05 00:03:03;;;;;;;7.50;6.68;;;21.90;62.50;;;;;;5092206;28;20178;-60
2021/09/05 00:05:29;;;;;;;7.15;6.50;;;22.00;62.50;;;;;;5091403;28;20655;-61
2021/09/05 00:07:55;;;;;;;7.30;6.60;;;21.90;62.40;;;;;;5092176;28;20298;-60
2021/09/05 00:10:20;;;;;;;7.20;6.50;;;21.90;62.50;;;;;;5092260;28;20170;-61
2021/09/05 00:12:46;;;;;;;7.38;6.63;;;21.90;63.30;;;;;;5091606;28;20659;-60
2021/09/05 00:15:11;;;;;;;6.97;6.28;;;21.90;62.50;;;;;;5092416;28;20238;-60
2021/09/05 00:17:37;;;;;;;7.80;6.97;;;21.90;62.50;;;;;;5091917;28;20268;-60
2021/09/05 00:20:04;;;;;;;7.32;6.63;;;21.90;62.50;;;;;;5091357;28;20230;-60
2021/09/05 00:22:29;;;;;;;7.70;6.80;;;21.90;62.50;;;;;;5091699;28;20189;-60
2021/09/05 00:24:55;;;;;;;6.88;6.18;;;21.90;62.50;;;;;;5092330;28;20170;-60
2021/09/05 00:27:20;;;;;;;7.38;6.68;;;21.90;62.50;;;;;;5093459;28;20266;-61
2021/09/05 00:29:46;;;;;;;7.10;6.45;;;21.90;62.50;;;;;;5095827;28;20577;-60
2021/09/05 00:32:11;;;;;;;6.82;6.13;;;21.90;63.30;;;;;;5095945;28;20173;-61
2021/09/05 00:34:37;;;;;;;7.40;6.53;;;21.90;62.60;;;;;;5095089;28;20265;-61
2021/09/05 00:37:03;;;;;;;7.05;6.22;;;21.90;62.60;;;;;;5095848;28;20184;-60
2021/09/05 00:39:29;;;;;;;7.57;6.78;;;21.90;62.60;;;;;;5094649;28;20526;-61
2021/09/05 00:41:54;;;;;;;7.90;6.75;;;21.90;62.60;;;;;;5095771;28;20182;-61
2021/09/05 00:44:20;;;;;;;6.78;6.18;;;21.90;62.60;;;;;;5095550;28;20215;-61
2021/09/05 00:46:45;;;;;;;6.50;5.97;;;21.90;62.60;;;;;;5094952;28;20170;-61
2021/09/05 00:49:11;;;;;;;7.50;6.72;;;21.80;63.40;;;;;;5095650;28;20181;-61
2021/09/05 00:51:38;;;;;;;7.47;6.78;;;21.90;62.60;;;;;;5095186;28;20310;-61
2021/09/05 00:54:05;;;;;;;7.82;7.03;;;21.80;63.40;;;;;;5094719;28;20584;-60
2021/09/05 00:56:34;;;;;;;6.93;6.22;;;21.80;62.50;;;;;;5095484;28;20542;-60
2021/09/05 00:59:07;;;;;;;7.00;6.40;;;21.80;62.60;;;;;;5095387;28;20242;-60
2021/09/05 01:01:33;;;;;;;7.10;6.35;;;21.80;62.60;;;;;;5094346;28;20181;-60
2021/09/05 01:03:59;;;;;;;7.80;7.00;;;21.80;62.60;;;;;;5095227;28;20547;-60
2021/09/05 01:06:24;;;;;;;7.88;7.00;;;21.80;62.60;;;;;;5094735;28;20170;-60
2021/09/05 01:08:51;;;;;;;6.63;6.03;;;21.80;62.60;;;;;;5094528;28;20206;-61
2021/09/05 01:11:17;;;;;;;6.90;6.20;;;21.80;62.60;;;;;;5095328;28;20178;-60
2021/09/05 01:13:43;;;;;;;6.68;6.07;;;21.80;62.60;;;;;;5110655;28;20570;-60
2021/09/05 01:16:27;;;;;;;7.57;6.50;;;21.80;62.60;;;;;;5094248;28;20526;-60
2021/09/05 01:18:53;;;;;;;7.45;6.75;;;21.80;62.60;;;;;;5094860;28;20173;-60
2021/09/05 01:21:19;;;;;;;6.80;6.15;;;21.80;62.60;;;;;;5094877;28;20241;-60
2021/09/05 01:23:44;;;;;;;7.68;6.88;;;21.80;62.60;;;;;;5094105;28;20174;-59
2021/09/05 01:26:12;;;;;;;7.28;6.57;;;21.80;62.60;;;;;;5094966;28;20176;-60
2021/09/05 01:28:37;;;;;;;7.45;6.50;;;21.80;62.70;;;;;;5109301;28;20209;-60
2021/09/05 01:31:03;;;;;;;6.35;5.75;;;21.80;62.70;;;;;;5094617;28;20170;-60
2021/09/05 01:33:28;;;;;;;6.45;5.88;;;21.80;62.70;;;;;;5094343;28;20188;-60
2021/09/05 01:35:54;;;;;;;6.63;6.03;;;21.80;62.70;;;;;;5093979;28;20178;-61
2021/09/05 01:38:19;;;;;;;6.43;5.80;;;21.70;62.60;;;;;;5093665;28;20524;-61
2021/09/05 01:40:45;;;;;;;6.95;6.25;;;21.80;62.70;;;;;;5094673;28;20181;-61
2021/09/05 01:43:10;;;;;;;7.15;6.45;;;21.70;62.60;;;;;;5093811;28;20205;-60
2021/09/05 01:45:36;;;;;;;7.60;6.88;;;21.70;62.60;;;;;;5094166;28;20169;-61
2021/09/05 01:48:01;;;;;;;7.38;6.32;;;21.70;62.60;;;;;;5094107;28;20208;-60
2021/09/05 01:50:27;;;;;;;7.10;6.40;;;21.70;62.60;;;;;;5093519;28;20210;-60
2021/09/05 01:52:52;;;;;;;6.72;6.13;;;21.70;62.60;;;;;;5094339;28;20656;-60
2021/09/05 01:55:18;;;;;;;6.68;6.07;;;21.70;63.50;;;;;;5094321;28;20253;-60
2021/09/05 01:57:43;;;;;;;7.18;6.47;;;21.70;62.70;;;;;;5093141;28;20202;-60
2021/09/05 02:00:09;;;;;;;7.80;6.38;;;21.70;62.70;;;;;;5094252;28;20226;-61
2021/09/05 02:02:35;;;;;;;8.48;6.97;;;21.70;62.60;;;;;;5093894;28;20276;-61
2021/09/05 02:05:00;;;;;;;6.90;6.13;;;21.70;62.60;;;;;;5093473;28;20173;-61
2021/09/05 02:07:26;;;;;;;7.63;6.93;;;21.70;62.60;;;;;;5093631;28;20613;-61
2021/09/05 02:09:51;;;;;;;7.65;6.95;;;21.70;62.60;;;;;;5094042;28;20176;-61
2021/09/05 02:12:17;;;;;;;7.32;6.63;;;21.70;62.70;;;;;;5093469;28;20205;-60
2021/09/05 02:14:42;;;;;;;6.60;6.00;;;21.70;62.70;;;;;;5093759;28;20166;-60
2021/09/05 02:17:08;;;;;;;6.78;6.18;;;21.70;62.70;;;;;;5093801;28;20224;-60
2021/09/05 02:19:33;;;;;;;6.47;5.82;;;21.70;62.70;;;;;;5092962;28;20638;-61
2021/09/05 02:22:00;;;;;;;7.45;6.43;;;21.70;62.70;;;;;;5093666;28;20229;-60
2021/09/05 02:24:25;;;;;;;6.75;6.07;;;21.70;62.70;;;;;;5093487;28;20185;-60
2021/09/05 02:26:51;;;;;;;6.88;6.18;;;21.60;62.70;;;;;;5092940;28;20170;-60
2021/09/05 02:29:16;;;;;;;6.95;6.35;;;21.60;62.60;;;;;;5093606;28;20183;-61
2021/09/05 02:31:42;;;;;;;7.07;6.38;;;21.60;62.60;;;;;;5093296;28;20166;-60
2021/09/05 02:34:07;;;;;;;6.88;6.22;;;21.60;62.70;;;;;;5092818;28;20173;-61
2021/09/05 02:36:33;;;;;;;7.28;6.57;;;21.60;62.70;;;;;;5093386;28;20620;-60
2021/09/05 02:38:58;;;;;;;7.00;6.32;;;21.60;62.70;;;;;;5092926;28;20174;-61
2021/09/05 02:41:24;;;;;;;7.43;6.68;;;21.60;62.70;;;;;;5093232;28;20254;-60
2021/09/05 02:43:49;;;;;;;6.90;6.20;;;21.60;62.70;;;;;;5093381;28;20628;-61
2021/09/05 02:46:15;;;;;;;6.95;6.25;;;21.60;62.70;;;;;;5092541;28;20185;-60
2021/09/05 02:48:40;;;;;;;6.80;6.13;;;21.60;62.70;;;;;;5093081;28;20220;-60
2021/09/05 02:51:06;;;;;;;6.20;5.70;;;21.60;62.70;;;;;;5092516;28;20165;-61
2021/09/05 02:53:31;;;;;;;6.78;6.10;;;21.60;62.70;;;;;;5092142;28;20178;-60
2021/09/05 02:55:57;;;;;;;6.65;6.05;;;21.60;62.70;;;;;;5093295;28;20174;-60
2021/09/05 02:58:22;;;;;;;6.68;6.03;;;21.60;62.70;;;;;;5092902;28;20177;-60
2021/09/05 03:00:48;;;;;;;6.47;5.85;;;21.60;62.70;;;;;;5092306;28;20265;-60
2021/09/05 03:03:13;;;;;;;6.60;5.97;;;21.60;62.70;;;;;;5093277;28;20174;-61
2021/09/05 03:05:39;;;;;;;6.65;6.05;;;21.60;62.70;;;;;;5092419;28;20490;-60
2021/09/05 03:08:05;;;;;;;6.88;6.20;;;21.60;62.70;;;;;;5092292;28;20246;-61
2021/09/05 03:10:30;;;;;;;7.05;6.45;;;21.60;62.80;;;;;;5092482;28;20166;-61
2021/09/05 03:12:56;;;;;;;6.38;5.82;;;21.50;62.70;;;;;;5092920;28;20170;-60
2021/09/05 03:15:21;;;;;;;6.75;5.82;;;21.50;62.70;;;;;;5091887;28;20165;-61
2021/09/05 03:17:47;;;;;;;6.65;6.00;;;21.60;62.80;;;;;;5092754;28;20177;-61
2021/09/05 03:20:12;;;;;;;6.38;5.75;;;21.50;62.70;;;;;;5092776;28;20271;-60
2021/09/05 03:22:38;;;;;;;6.88;6.28;;;21.50;62.70;;;;;;5091936;28;20276;-60
2021/09/05 03:25:04;;;;;;;6.25;5.63;;;21.60;62.80;;;;;;5092759;28;20524;-60
2021/09/05 03:27:29;;;;;;;6.53;5.90;;;21.50;62.70;;;;;;5092369;28;20262;-61
2021/09/05 03:29:55;;;;;;;6.20;5.70;;;21.50;62.70;;;;;;5091947;28;20170;-60
2021/09/05 03:32:20;;;;;;;6.70;6.00;;;21.50;62.80;;;;;;5092352;28;20327;-61
2021/09/05 03:34:45;;;;;;;5.82;5.32;;;21.50;62.80;;;;;;5092781;28;20166;-60
2021/09/05 03:37:11;;;;;;;6.43;5.82;;;21.50;62.80;;;;;;5092039;28;20180;-61
2021/09/05 03:39:36;;;;;;;6.60;6.00;;;21.50;62.80;;;;;;5092363;28;20176;-61
2021/09/05 03:42:02;;;;;;;6.57;5.97;;;21.50;62.80;;;;;;5092763;28;20212;-61
2021/09/05 03:44:28;;;;;;;6.68;6.00;;;21.50;62.80;;;;;;5091404;28;20178;-61
2021/09/05 03:46:53;;;;;;;6.47;5.88;;;21.50;62.80;;;;;;5092310;28;20624;-61
2021/09/05 03:49:19;;;;;;;6.40;5.75;;;21.50;62.80;;;;;;5091924;28;20174;-61
2021/09/05 03:51:44;;;;;;;6.20;5.65;;;21.50;62.90;;;;;;5092290;28;20170;-60
2021/09/05 03:54:10;;;;;;;9.10;6.30;;;21.50;62.90;;;;;;5092512;28;20173;-60
2021/09/05 03:56:35;;;;;;;6.72;6.07;;;21.50;62.90;;;;;;5091418;28;20169;-61
2021/09/05 03:59:03;;;;;;;8.38;6.15;;;21.50;62.90;;;;;;5092292;28;20219;-60
2021/09/05 04:01:29;;;;;;;6.55;5.95;;;21.50;62.90;;;;;;5093305;28;20178;-61
2021/09/05 04:03:55;;;;;;;6.40;5.80;;;21.50;62.90;;;;;;5095728;28;20650;-60
2021/09/05 04:06:21;;;;;;;7.47;6.10;;;21.50;62.90;;;;;;5096282;28;20174;-61
2021/09/05 04:08:49;;;;;;;6.78;6.18;;;21.50;62.90;;;;;;5096413;28;20216;-60
2021/09/05 04:11:14;;;;;;;6.22;5.63;;;21.50;62.90;;;;;;5095780;28;20170;-60
2021/09/05 04:13:40;;;;;;;6.25;5.75;;;21.50;62.90;;;;;;5095953;28;20177;-60
2021/09/05 04:16:06;;;;;;;6.55;5.95;;;21.40;62.80;;;;;;5096216;28;20176;-60
2021/09/05 04:18:31;;;;;;;5.95;5.45;;;21.50;62.90;;;;;;5095437;28;20189;-60
2021/09/05 04:20:57;;;;;;;7.15;6.50;;;21.40;62.80;;;;;;5096283;28;20719;-60
2021/09/05 04:23:22;;;;;;;6.65;6.05;;;21.40;62.90;;;;;;5095972;28;20178;-60
2021/09/05 04:25:48;;;;;;;6.70;6.00;;;21.40;62.90;;;;;;5095547;28;20173;-60
2021/09/05 04:28:13;;;;;;;6.15;5.45;;;21.40;62.90;;;;;;5095924;28;20209;-60
2021/09/05 04:30:39;;;;;;;6.63;6.03;;;21.40;62.90;;;;;;5095563;28;20173;-60
2021/09/05 04:33:05;;;;;;;6.55;5.80;;;21.40;62.90;;;;;;5095306;28;20169;-60
2021/09/05 04:35:30;;;;;;;6.65;6.05;;;21.40;62.90;;;;;;5095832;28;20202;-60
2021/09/05 04:37:56;;;;;;;5.90;5.30;;;21.40;62.90;;;;;;5096160;28;20187;-60
2021/09/05 04:40:21;;;;;;;6.13;5.55;;;21.40;62.90;;;;;;5094829;28;20170;-60
2021/09/05 04:42:47;;;;;;;6.28;5.68;;;21.40;62.90;;;;;;5095582;28;20246;-60
2021/09/05 04:45:12;;;;;;;6.20;5.60;;;21.40;62.90;;;;;;5095570;28;20166;-61
2021/09/05 04:47:38;;;;;;;6.18;5.57;;;21.40;63.00;;;;;;5094715;28;20216;-61
2021/09/05 04:50:04;;;;;;;5.95;5.35;;;21.40;63.00;;;;;;5095708;28;20162;-60
2021/09/05 04:52:29;;;;;;;6.63;6.03;;;21.40;62.10;;;;;;5094615;28;20184;-60
2021/09/05 04:54:54;;;;;;;7.13;5.80;;;21.40;62.90;;;;;;5095516;28;20331;-61
2021/09/05 04:57:20;;;;;;;6.63;6.03;;;21.40;63.00;;;;;;5095146;28;20276;-60
2021/09/05 04:59:45;;;;;;;6.97;6.32;;;21.40;63.00;;;;;;5094583;28;20252;-60
2021/09/05 05:02:11;;;;;;;5.82;5.32;;;21.40;62.90;;;;;;5095224;28;20181;-60
2021/09/05 05:04:36;;;;;;;5.90;5.40;;;21.40;63.00;;;;;;5095191;28;20639;-60
2021/09/05 05:07:02;;;;;;;6.20;5.60;;;21.30;62.90;;;;;;5094586;28;20190;-61
2021/09/05 05:09:28;;;;;;;6.47;5.88;;;21.40;63.00;;;;;;5095035;28;20186;-61
2021/09/05 05:11:53;;;;;;;5.72;5.20;;;21.40;63.00;;;;;;5095179;28;20169;-60
2021/09/05 05:14:19;;;;;;;6.65;4.95;;;21.40;63.00;;;;;;5093363;28;20174;-60
2021/09/05 05:16:44;;;;;;;6.03;5.43;;;21.40;63.00;;;;;;5095053;28;20173;-60
2021/09/05 05:19:10;;;;;;;5.70;5.20;;;21.40;63.00;;;;;;5094965;28;20176;-60
2021/09/05 05:21:35;;;;;;;5.75;5.15;;;21.40;63.00;;;;;;5093732;28;20217;-60
2021/09/05 05:24:01;;;;;;;6.07;5.55;;;21.40;63.00;;;;;;5095215;28;20620;-60
2021/09/05 05:26:26;;;;;;;6.03;5.53;;;21.30;62.90;;;;;;5094644;28;20178;-60
2021/09/05 05:28:52;;;;;;;6.63;5.93;;;21.30;62.90;;;;;;5094051;28;20247;-60
2021/09/05 05:31:18;;;;;;;6.53;5.93;;;21.30;62.90;;;;;;5095008;28;20178;-60
2021/09/05 05:33:43;;;;;;;6.22;5.57;;;21.40;63.00;;;;;;5094672;28;20184;-60
2021/09/05 05:36:09;;;;;;;6.75;6.05;;;21.40;63.00;;;;;;5094105;28;20173;-60
2021/09/05 05:38:36;;;;;;;6.25;5.30;;;21.40;62.90;;;;;;5094370;28;20189;-60
2021/09/05 05:41:01;;;;;;;6.22;5.63;;;21.30;62.80;;;;;;5094467;28;20174;-60
2021/09/05 05:43:27;;;;;;;6.57;5.93;;;21.30;62.90;;;;;;5093489;28;20227;-60
2021/09/05 05:45:52;;;;;;;6.63;5.95;;;21.40;63.00;;;;;;5094404;28;20204;-61
2021/09/05 05:48:18;;;;;;;5.80;5.28;;;21.30;62.80;;;;;;5094263;28;20237;-61
2021/09/05 05:50:45;;;;;;;6.35;5.75;;;21.30;62.80;;;;;;5093202;28;20529;-61
2021/09/05 05:53:10;;;;;;;6.53;5.22;;;21.40;62.90;;;;;;5094119;28;20178;-60
2021/09/05 05:55:36;;;;;;;6.20;5.60;;;21.40;63.00;;;;;;5093643;28;20223;-60
2021/09/05 05:58:02;;;;;;;6.70;5.80;;;21.30;62.80;;;;;;5093183;28;20258;-60
2021/09/05 06:00:27;;;;;;;5.85;5.28;;;21.30;62.80;;;;;;5093985;28;20178;-61
2021/09/05 06:02:53;;;;;;;5.68;5.18;;;21.40;62.90;;;;;;5093211;28;20628;-61
2021/09/05 06:05:19;;;;;;;6.15;5.55;;;21.40;62.80;;;;;;5094019;28;20173;-61
2021/09/05 06:07:44;;;;;;;6.13;5.53;;;21.30;62.80;;;;;;5093713;28;20201;-61
2021/09/05 06:10:10;;;;;;;5.78;5.07;;;21.40;62.90;;;;;;5093086;28;20162;-61
2021/09/05 06:12:36;;;;;;;6.10;5.55;;;21.40;62.80;;;;;;5093315;28;20181;-60
2021/09/05 06:15:02;;;;;;;6.25;5.47;;;21.40;62.80;;;;;;5093842;28;20205;-61
2021/09/05 06:17:27;;;;;;;6.35;5.75;;;21.40;62.80;;;;;;5108614;28;20176;-62
2021/09/05 06:19:53;;;;;;;5.63;5.13;;;21.40;62.80;;;;;;5093559;28;20196;-62
2021/09/05 06:22:18;;;;;;;6.35;5.75;;;21.40;62.80;;;;;;5093653;28;20189;-62
2021/09/05 06:24:44;;;;;;;5.90;5.40;;;21.40;62.70;;;;;;5092295;28;20254;-61
2021/09/05 06:27:09;;;;;;;7.00;5.45;;;21.40;62.70;;;;;;5093308;28;20247;-62
2021/09/05 06:29:36;;;;;;;5.90;5.38;;;21.40;62.70;;;;;;5093218;28;20204;-62
2021/09/05 06:32:01;;;;;;;6.60;5.68;;;21.40;62.60;;;;;;5092653;28;20169;-61
2021/09/05 06:34:27;;;;;;;6.53;5.90;;;21.40;62.60;;;;;;5093069;28;20632;-62
2021/09/05 06:36:52;;;;;;;5.47;4.97;;;21.40;63.40;;;;;;5093295;28;20197;-62
2021/09/05 06:39:18;;;;;;;6.15;5.55;;;21.40;62.50;;;;;;5092550;28;20184;-62
2021/09/05 06:41:43;;;;;;;5.40;4.90;;;21.40;62.50;;;;;;5092830;28;20700;-62
2021/09/05 06:44:09;;;;;;;5.43;4.93;;;21.50;62.50;;;;;;5093418;28;20265;-61
2021/09/05 06:46:37;;;;;;;6.18;5.50;;;21.50;62.40;;;;;;5092160;28;20169;-61
2021/09/05 06:49:03;;;;;;;5.55;5.05;;;21.50;62.40;;;;;;5092964;28;20216;-61
2021/09/05 06:51:28;;;;;;;4.82;4.43;;;21.50;62.20;;;;;;5092666;28;20181;-61
2021/09/05 06:53:54;;;;;;;5.82;5.32;;;21.50;62.20;;;;;;5092234;28;20220;-61
2021/09/05 06:56:19;;;;;;;5.68;5.18;;;21.50;62.10;;;;;;5092797;28;20162;-61
2021/09/05 06:58:45;;;;;;;6.10;5.50;;;21.50;62.00;;;;;;5092811;28;20174;-60
2021/09/05 07:01:10;;;;;;;5.82;5.22;;;21.60;62.00;;;;;;5092055;28;20182;-61
2021/09/05 07:03:36;;;;;;;5.65;5.10;;;21.60;62.10;;;;;;5092489;28;20170;-61
2021/09/05 07:06:01;;;;;;;5.72;5.22;;;21.60;62.00;;;;;;5093012;28;20256;-62
2021/09/05 07:08:27;;;;;;;6.25;5.65;;;21.60;61.90;;;;;;5091777;28;20303;-62
2021/09/05 07:10:52;;;;;;;6.90;5.53;;;21.60;61.80;;;;;;5092711;28;20177;-62
2021/09/05 07:13:21;;;;;;;6.03;5.43;;;21.60;61.80;;;;;;5091904;28;20178;-61
2021/09/05 07:15:46;;;;;;;6.00;5.43;;;21.60;61.80;;;;;;5092727;28;20174;-61
2021/09/05 07:18:12;;;;;;;6.03;5.40;;;21.70;61.80;;;;;;5092713;28;20231;-61
2021/09/05 07:20:37;;;;;;;6.53;5.70;;;21.70;61.70;;;;;;5091500;28;20225;-61
2021/09/05 07:23:03;;;;;;;6.05;5.40;;;21.70;61.70;;;;;;5092675;28;20260;-61
2021/09/05 07:25:29;;;;;;;5.75;5.15;;;21.70;61.60;;;;;;5092323;28;20251;-61
2021/09/05 07:27:55;;;;;;;5.63;5.13;;;21.80;61.60;;;;;;5091816;28;20234;-61
2021/09/05 07:30:20;;;;;;;6.38;5.53;;;21.80;61.60;;;;;;5092088;28;20215;-61
2021/09/05 07:32:46;;;;;;;5.75;5.25;;;21.80;61.50;;;;;;5092398;28;20184;-61
2021/09/05 07:35:11;;;;;;;5.97;5.43;;;21.80;61.50;;;;;;5091529;28;20260;-61
2021/09/05 07:37:38;;;;;;;5.78;5.25;;;21.80;61.50;;;;;;5091480;28;20201;-61
2021/09/05 07:40:05;;;;;;;5.68;5.07;;;21.80;61.40;;;;;;5092285;28;20177;-61
2021/09/05 07:42:30;;;;;;;6.03;5.43;;;21.80;61.40;;;;;;5091584;28;20181;-61
2021/09/05 07:44:58;;;;;;;5.50;5.00;;;21.90;61.40;;;;;;5092649;28;20180;-61
2021/09/05 07:47:23;;;;;;;5.88;5.28;;;21.90;61.40;;;;;;5092106;28;20596;-61
2021/09/05 07:49:49;;;;;;;5.95;5.35;;;21.90;61.30;;;;;;5091616;28;20640;-61
2021/09/05 07:52:14;;;;;;;6.07;5.50;;;21.90;61.20;;;;;;5092496;28;20644;-61
2021/09/05 07:54:40;;;;;;;5.60;5.00;;;21.90;61.20;;;;;;5092202;28;20280;-60
2021/09/05 07:57:05;;;;;;;6.05;5.45;;;22.00;61.20;;;;;;5092015;28;20174;-61
2021/09/05 07:59:31;;;;;;;5.70;5.10;;;22.00;61.20;;;;;;5092125;28;20173;-61
2021/09/05 08:01:56;;;;;;;5.55;5.05;;;22.00;61.20;;;;;;5092259;28;20174;-61
2021/09/05 08:04:22;;;;;;;6.18;5.15;;;22.00;61.10;;;;;;5091269;28;20177;-61
2021/09/05 08:06:47;;;;;;;6.05;5.20;;;22.10;61.10;;;;;;5091945;28;20387;-61
2021/09/05 08:09:13;;;;;;;7.18;5.75;;;22.00;60.90;;;;;;5092060;28;20644;-61
2021/09/05 08:11:38;;;;;;;5.53;5.03;;;22.10;60.90;;;;;;5091356;28;20223;-60
2021/09/05 08:14:04;;;;;;;5.85;5.25;;;22.10;60.80;;;;;;5092341;28;20174;-61
2021/09/05 08:16:29;;;;;;;6.20;5.20;;;22.10;60.80;;;;;;5090934;28;20170;-61
2021/09/05 08:18:55;;;;;;;5.60;5.10;;;22.10;60.80;;;;;;5091940;28;20605;-60
2021/09/05 08:21:20;;;;;;;6.40;5.60;;;22.20;60.80;;;;;;5091571;28;20304;-62
2021/09/05 08:23:46;;;;;;;5.35;4.85;;;22.20;60.90;;;;;;5091083;28;20609;-61
2021/09/05 08:26:12;;;;;;;6.85;5.55;;;22.20;61.00;;;;;;5092076;28;20626;-60
2021/09/05 08:28:38;;;;;;;9.00;6.05;;;22.20;60.50;;;;;;5091446;28;20237;-60
2021/09/05 08:31:04;;;;;;;7.65;6.65;;;22.10;59.70;;;;;;5090826;28;20205;-60
2021/09/05 08:33:29;;;;;;;13.60;7.90;;;22.00;57.80;;;;;;5091028;28;20658;-61
2021/09/05 08:35:55;;;;;;;9.43;7.35;;;21.90;56.50;;;;;;5091316;28;20188;-60
2021/09/05 08:38:20;;;;;;;9.65;7.85;;;21.90;57.00;;;;;;5090315;28;20204;-61
2021/09/05 08:40:47;;;;;;;9.27;7.30;;;21.90;56.30;;;;;;5091449;28;20170;-61
2021/09/05 08:43:13;;;;;;;11.65;7.65;;;21.90;55.90;;;;;;5091472;28;20289;-60
2021/09/05 08:45:39;;;;;;;11.43;8.25;;;21.90;56.10;;;;;;5090256;28;20178;-60
2021/09/05 08:48:05;;;;;;;10.75;8.07;;;21.90;55.90;;;;;;5093539;28;20697;-61
2021/09/05 08:50:31;;;;;;;8.20;6.95;;;21.90;55.50;;;;;;5095096;28;20524;-60
2021/09/05 08:52:56;;;;;;;10.88;6.85;;;21.90;55.20;;;;;;5094522;28;20648;-60
2021/09/05 08:55:22;;;;;;;15.02;7.32;;;21.90;55.30;;;;;;5095138;28;20201;-60
2021/09/05 08:57:51;;;;;;;9.02;7.47;;;21.90;55.00;;;;;;5095384;28;20174;-60
2021/09/05 09:00:16;;;;;;;10.52;8.13;;;21.90;54.90;;;;;;5094226;28;20169;-61
2021/09/05 09:02:49;;;;;;;11.50;7.82;;;21.90;54.60;;;;;;5094700;28;20173;-60
2021/09/05 09:05:15;;;;;;;9.77;7.85;;;21.90;54.70;;;;;;5094776;28;20640;-61
2021/09/05 09:07:47;;;;;;;10.55;7.50;;;22.00;54.70;;;;;;5093702;28;20209;-60
2021/09/05 09:10:13;;;;;;;9.68;7.05;;;22.10;55.30;;;;;;5095224;28;20174;-60
2021/09/05 09:12:42;;;;;;;12.10;8.32;;;22.10;54.80;;;;;;5093595;28;20196;-60
2021/09/05 09:15:18;;;;;;;10.07;7.60;;;22.10;54.70;;;;;;5093803;28;20252;-60
2021/09/05 09:17:44;;;;;;;9.25;7.13;;;22.20;54.10;;;;;;5091153;28;20169;-60
2021/09/05 09:20:10;;;;;;;9.80;7.35;;;22.20;54.00;;;;;;5092583;28;20213;-60
2021/09/05 09:22:35;;;;;;;9.60;7.97;;;22.20;53.60;;;;;;5094497;28;20178;-60
2021/09/05 09:25:01;;;;;;;11.38;7.88;;;22.20;53.80;;;;;;5094413;28;20231;-60
2021/09/05 09:27:26;;;;;;;10.45;7.68;;;22.30;53.80;;;;;;5093329;28;20547;-60
2021/09/05 09:29:56;;;;;;;8.40;6.82;;;22.30;53.80;;;;;;5094424;28;20165;-59
2021/09/05 09:32:23;;;;;;;7.93;6.45;;;22.30;53.60;;;;;;5094029;28;20249;-59
2021/09/05 09:34:48;;;;;;;8.95;7.07;;;22.30;53.70;;;;;;5094127;28;20182;-59
2021/09/05 09:37:19;;;;;;;12.20;8.10;;;22.40;53.70;;;;;;5094641;28;20197;-62
2021/09/05 09:39:52;;;;;;;9.95;7.35;;;22.40;54.30;;;;;;5094046;28;20197;-60
2021/09/05 09:42:39;;;;;;;8.85;7.63;;;22.50;53.80;;;;;;5093823;28;20567;-59
2021/09/05 09:45:15;;;;;;;10.25;7.70;;;22.50;54.10;;;;;;5094185;28;20178;-59
2021/09/05 09:47:44;;;;;;;9.48;7.32;;;22.50;54.00;;;;;;5094003;28;20209;-59
2021/09/05 09:50:14;;;;;;;10.45;7.70;;;22.50;54.00;;;;;;5093671;28;20177;-59
2021/09/05 09:52:40;;;;;;;9.50;6.85;;;22.50;53.80;;;;;;5093994;28;20178;-59
2021/09/05 09:55:06;;;;;;;9.43;7.55;;;22.60;53.50;;;;;;5093498;28;20178;-59
2021/09/05 09:57:32;;;;;;;10.25;7.32;;;22.60;53.40;;;;;;5093572;28;20551;-59
2021/09/05 09:59:57;;;;;;;9.07;7.60;;;22.60;53.40;;;;;;5093514;28;20223;-59
2021/09/05 10:02:25;;;;;;;8.60;6.90;;;22.60;53.30;;;;;;5093098;28;20170;-60
2021/09/05 10:04:50;;;;;;;9.77;7.40;;;22.70;53.40;;;;;;5092771;28;20264;-61
2021/09/05 10:07:17;;;;;;;10.73;8.15;;;22.70;53.40;;;;;;5092466;28;20285;-61
2021/09/05 10:09:43;;;;;;;9.55;7.53;;;22.70;53.40;;;;;;5092720;28;20182;-59
2021/09/05 10:12:08;;;;;;;9.60;7.15;;;22.70;53.40;;;;;;5092094;28;20250;-59
2021/09/05 10:14:35;;;;;;;8.95;6.90;;;22.70;53.00;;;;;;5093396;28;20605;-59
2021/09/05 10:17:00;;;;;;;10.38;6.90;;;22.80;53.00;;;;;;5091645;28;20258;-59
2021/09/05 10:19:26;;;;;;;9.45;7.03;;;22.80;52.80;;;;;;5091803;28;20193;-59
2021/09/05 10:21:51;;;;;;;8.25;7.07;;;22.80;52.80;;;;;;5091801;28;20710;-59
2021/09/05 10:24:19;;;;;;;13.45;7.18;;;22.90;52.90;;;;;;5092679;28;20178;-61
2021/09/05 10:27:01;;;;;;;11.10;7.60;;;22.90;53.00;;;;;;5091899;28;20228;-61
2021/09/05 10:29:27;;;;;;;7.78;6.13;;;22.90;53.00;;;;;;5093123;28;20189;-60
2021/09/05 10:31:52;;;;;;;13.27;7.43;;;23.00;53.20;;;;;;5092644;28;20620;-61
2021/09/05 10:34:37;;;;;;;10.05;6.97;;;23.00;53.20;;;;;;5093109;28;20204;-61
2021/09/05 10:37:10;;;;;;;8.90;6.82;;;23.00;53.20;;;;;;5093018;28;20182;-62
2021/09/05 10:39:36;;;;;;;10.52;7.22;;;23.00;53.20;;;;;;5092781;28;20261;-60
2021/09/05 10:42:01;;;;;;;9.40;6.97;;;23.00;53.40;;;;;;5091597;28;20261;-60
2021/09/05 10:44:27;;;;;;;9.05;7.03;;;23.00;53.30;;;;;;5092046;28;20186;-59
2021/09/05 10:46:55;;;;;;;7.70;6.38;;;23.10;52.90;;;;;;5092833;28;20201;-59
2021/09/05 10:49:37;;;;;;;9.00;7.18;;;23.10;52.90;;;;;;5092500;28;20217;-58
2021/09/05 10:52:03;;;;;;;10.15;7.28;;;23.20;52.80;;;;;;5092160;28;20529;-59
2021/09/05 10:54:29;;;;;;;9.20;7.40;;;23.10;52.70;;;;;;5092619;28;20182;-59
2021/09/05 10:56:58;;;;;;;7.95;6.93;;;23.10;52.70;;;;;;5092677;28;20633;-59
2021/09/05 10:59:24;;;;;;;10.02;7.38;;;23.10;52.60;;;;;;5091765;28;20178;-60
2021/09/05 11:01:50;;;;;;;8.23;7.20;;;23.10;52.60;;;;;;5092682;28;20178;-59
2021/09/05 11:04:20;;;;;;;9.23;7.72;;;23.20;52.80;;;;;;5092380;28;20196;-59
2021/09/05 11:06:57;;;;;;;9.30;6.88;;;23.20;52.50;;;;;;5092102;28;20189;-61
2021/09/05 11:09:23;;;;;;;12.52;7.28;;;23.20;52.70;;;;;;5092203;28;20235;-61
2021/09/05 11:12:03;;;;;;;9.93;6.75;;;23.20;52.70;;;;;;5091483;28;20212;-61
2021/09/05 11:14:37;;;;;;;9.73;7.55;;;23.20;52.80;;;;;;5091434;28;20184;-61
2021/09/05 11:17:11;;;;;;;8.38;6.95;;;23.30;53.60;;;;;;5092575;28;20172;-61
2021/09/05 11:19:46;;;;;;;8.88;6.60;;;23.30;53.10;;;;;;5091451;28;20867;-60
2021/09/05 11:22:12;;;;;;;9.25;7.13;;;23.40;53.20;;;;;;5092348;28;20235;-61
2021/09/05 11:24:38;;;;;;;9.75;7.40;;;23.30;53.20;;;;;;5091867;28;20178;-60
2021/09/05 11:27:04;;;;;;;9.75;7.43;;;23.40;53.20;;;;;;5091813;28;20181;-59
2021/09/05 11:29:30;;;;;;;9.55;7.20;;;23.40;52.80;;;;;;5091829;28;20624;-60
2021/09/05 11:32:06;;;;;;;9.73;6.78;;;23.40;52.60;;;;;;5092409;28;20203;-59
2021/09/05 11:34:33;;;;;;;9.73;7.30;;;23.40;52.80;;;;;;5091354;28;20204;-59
2021/09/05 11:36:58;;;;;;;9.60;6.80;;;23.40;52.60;;;;;;5091996;28;20623;-59
2021/09/05 11:39:24;;;;;;;10.35;6.57;;;23.40;52.50;;;;;;5091799;28;20173;-59
2021/09/05 11:41:56;;;;;;;8.55;6.95;;;23.40;52.50;;;;;;5091391;28;20174;-59
2021/09/05 11:44:34;;;;;;;7.65;6.82;;;23.40;52.20;;;;;;5091728;28;20185;-58
2021/09/05 11:47:10;;;;;;;9.25;7.18;;;23.40;52.60;;;;;;5092060;28;20180;-59
2021/09/05 11:49:48;;;;;;;10.73;7.22;;;23.50;52.50;;;;;;5090960;28;20181;-60
2021/09/05 11:52:21;;;;;;;9.38;7.18;;;23.50;52.60;;;;;;5092556;28;20256;-59
2021/09/05 11:54:48;;;;;;;8.57;6.65;;;23.50;51.70;;;;;;5091430;28;20181;-60
2021/09/05 11:57:14;;;;;;;7.50;6.60;;;23.50;51.30;;;;;;5092339;28;20205;-61
2021/09/05 11:59:39;;;;;;;10.55;7.18;;;23.50;51.90;;;;;;5091703;28;20210;-60
2021/09/05 12:02:05;;;;;;;9.10;7.30;;;23.50;51.60;;;;;;5091149;28;20679;-61
2021/09/05 12:04:30;;;;;;;8.07;6.45;;;23.60;51.70;;;;;;5091507;28;20602;-60
2021/09/05 12:06:56;;;;;;;7.85;7.05;;;23.60;51.90;;;;;;5090980;28;20632;-61
2021/09/05 12:09:26;;;;;;;9.85;7.03;;;23.60;52.00;;;;;;5089601;28;20254;-60
2021/09/05 12:12:02;;;;;;;8.85;7.38;;;23.60;51.60;;;;;;5091580;28;20643;-60
2021/09/05 12:14:35;;;;;;;9.02;7.03;;;23.60;52.00;;;;;;5091416;28;20205;-59
2021/09/05 12:17:20;;;;;;;9.48;7.15;;;23.60;50.90;;;;;;5090970;28;20586;-59
2021/09/05 12:19:54;;;;;;;9.20;7.03;;;23.60;51.30;;;;;;5091685;28;20181;-60
2021/09/05 12:22:20;;;;;;;8.90;7.05;;;23.60;51.40;;;;;;5092162;28;20177;-59
2021/09/05 12:24:56;;;;;;;8.25;6.80;;;23.70;51.10;;;;;;5094847;28;20247;-59
2021/09/05 12:27:22;;;;;;;9.80;7.45;;;23.60;51.20;;;;;;5094821;28;20540;-59
2021/09/05 12:29:53;;;;;;;7.97;7.18;;;23.70;51.10;;;;;;5094948;28;20170;-58
2021/09/05 12:32:19;;;;;;;7.38;6.43;;;23.70;50.70;;;;;;5095406;28;20208;-59
2021/09/05 12:34:45;;;;;;;9.40;7.55;;;23.70;50.70;;;;;;5095403;28;20209;-59
2021/09/05 12:37:14;;;;;;;8.00;6.95;;;23.70;51.00;;;;;;5094656;28;20170;-60
2021/09/05 12:39:40;;;;;;;8.45;7.05;;;23.70;50.60;;;;;;5093689;28;20185;-59
2021/09/05 12:42:10;;;;;;;10.45;7.25;;;23.80;50.70;;;;;;5095015;28;20290;-59